Time;durP1;ratioP1;P1;durP2;ratioP2;P2;SDS_P1;SDS_P2;PMS_P1;PMS_P2;Temp;Humidity;BMP_temperature;BMP_pressure;BME280_temperature;BME280_humidity;BME280_pressure;Samples;Min_cycle;Max_cycle;Signal;HPM_P1;HPM_P2
2021/12/27 00:00:12;;;;;;;49.53;23.08;;;;;;;2.07;100.00;100198.97;5038124;28;20454;-48
2021/12/27 00:02:38;;;;;;;54.60;21.60;;;;;;;2.07;100.00;100193.72;5037516;28;20238;-44
2021/12/27 00:05:05;;;;;;;52.17;23.27;;;;;;;2.08;100.00;100192.72;5037694;28;20088;-48
2021/12/27 00:07:31;;;;;;;52.35;23.48;;;;;;;2.09;100.00;100188.28;5037250;28;20370;-50
2021/12/27 00:09:56;;;;;;;50.55;22.30;;;;;;;2.08;100.00;100187.47;5036656;28;20097;-48
2021/12/27 00:12:21;;;;;;;48.30;21.10;;;;;;;2.10;100.00;100190.81;5016919;28;20521;-45
2021/12/27 00:14:47;;;;;;;55.00;22.58;;;;;;;2.11;100.00;100191.66;5017616;28;20033;-46
2021/12/27 00:17:12;;;;;;;48.05;22.67;;;;;;;2.12;100.00;100190.69;5017904;28;20335;-46
2021/12/27 00:19:37;;;;;;;54.22;23.80;;;;;;;2.13;100.00;100197.63;5016270;28;20421;-46
2021/12/27 00:22:03;;;;;;;50.47;22.65;;;;;;;2.13;100.00;100198.47;5017763;28;20551;-47
2021/12/27 00:24:29;;;;;;;51.10;22.23;;;;;;;2.14;100.00;100191.41;5016710;28;20080;-46
2021/12/27 00:26:54;;;;;;;54.47;24.85;;;;;;;2.14;100.00;100188.75;5017523;28;20028;-50
2021/12/27 00:29:20;;;;;;;53.25;21.83;;;;;;;2.15;100.00;100180.75;5015919;28;20045;-46
2021/12/27 00:31:46;;;;;;;53.70;23.15;;;;;;;2.17;100.00;100188.53;5015940;28;20621;-47
2021/12/27 00:34:11;;;;;;;54.55;23.98;;;;;;;2.12;100.00;100180.16;5017437;28;20026;-47
2021/12/27 00:36:36;;;;;;;47.38;21.65;;;;;;;2.18;100.00;100179.66;5014801;28;20979;-46
2021/12/27 00:39:03;;;;;;;52.90;23.17;;;;;;;2.18;100.00;100174.41;5022424;28;20390;-46
2021/12/27 00:41:28;;;;;;;50.88;21.92;;;;;;;2.19;100.00;100174.28;5015378;28;20131;-47
2021/12/27 00:43:53;;;;;;;52.10;22.63;;;;;;;2.21;100.00;100172.34;5017163;28;20037;-46
2021/12/27 00:46:19;;;;;;;48.53;21.83;;;;;;;2.20;100.00;100165.41;5016831;28;20341;-44
2021/12/27 00:48:44;;;;;;;51.13;22.63;;;;;;;2.21;100.00;100163.63;5015141;28;20029;-43
2021/12/27 00:51:10;;;;;;;48.30;22.00;;;;;;;2.21;100.00;100161.81;5014910;28;20470;-46
2021/12/27 00:53:35;;;;;;;45.60;21.63;;;;;;;2.21;100.00;100153.91;5032120;28;20102;-46
2021/12/27 00:56:01;;;;;;;53.55;22.83;;;;;;;2.22;100.00;100144.19;5035465;28;20029;-43
2021/12/27 00:58:26;;;;;;;55.75;23.00;;;;;;;2.24;100.00;100140.50;5032147;28;20090;-47
2021/12/27 01:00:51;;;;;;;49.28;22.23;;;;;;;2.24;100.00;100140.50;5035578;28;20089;-45
2021/12/27 01:03:17;;;;;;;48.30;21.90;;;;;;;2.23;100.00;100130.91;5035297;28;20051;-44
2021/12/27 01:05:42;;;;;;;53.25;22.42;;;;;;;2.28;100.00;100140.25;5034126;28;20027;-45
2021/12/27 01:08:08;;;;;;;49.53;21.77;;;;;;;2.28;100.00;100130.53;5036502;28;20053;-44
2021/12/27 01:13:38;;;;;;;46.22;21.25;;;;;;;2.30;100.00;100131.25;5036200;28;20037;-44
2021/12/27 01:18:34;;;;;;;48.88;20.27;;;;;;;2.32;100.00;100141.66;5035739;28;20223;-45
2021/12/27 01:21:00;;;;;;;48.33;21.75;;;;;;;2.34;100.00;100142.38;5035432;28;20029;-42
2021/12/27 01:23:26;;;;;;;47.97;20.40;;;;;;;2.36;100.00;100137.81;5035889;28;20481;-48
2021/12/27 01:25:51;;;;;;;50.72;22.48;;;;;;;2.33;100.00;100128.38;5034238;28;20036;-45
2021/12/27 01:28:19;;;;;;;48.35;21.30;;;;;;;2.37;100.00;100136.84;5036900;28;20132;-45
2021/12/27 01:30:48;;;;;;;48.13;21.60;;;;;;;2.37;100.00;100136.84;5035924;28;20029;-47
2021/12/27 01:33:15;;;;;;;48.78;22.35;;;;;;;2.40;100.00;100128.69;5036471;28;20210;-46
2021/12/27 01:35:41;;;;;;;48.67;21.55;;;;;;;2.41;100.00;100117.19;5035905;28;20021;-43
2021/12/27 01:38:06;;;;;;;49.90;20.63;;;;;;;2.41;100.00;100125.94;5035501;28;20839;-44
2021/12/27 01:40:32;;;;;;;47.08;20.77;;;;;;;2.42;100.00;100124.13;5034979;28;20028;-46
2021/12/27 01:43:14;;;;;;;45.30;20.63;;;;;;;2.44;100.00;100122.19;5036686;28;20025;-43
2021/12/27 01:46:07;;;;;;;51.25;21.13;;;;;;;2.46;100.00;100122.06;5036422;28;20036;-45
2021/12/27 01:48:38;;;;;;;44.70;20.38;;;;;;;2.47;100.00;100124.59;5035580;28;20159;-45
2021/12/27 01:51:10;;;;;;;42.80;20.50;;;;;;;2.48;100.00;100125.41;5035671;28;20361;-45
2021/12/27 01:53:38;;;;;;;42.72;19.75;;;;;;;2.46;100.00;100112.41;5034561;28;20036;-48
2021/12/27 01:56:05;;;;;;;47.92;20.85;;;;;;;2.48;100.00;100118.38;5036701;28;20025;-48
2021/12/27 01:58:31;;;;;;;43.58;20.38;;;;;;;2.49;100.00;100121.81;5040291;28;20363;-48
2021/12/27 02:00:59;;;;;;;46.53;20.92;;;;;;;2.49;100.00;100121.81;5025765;28;20037;-44
2021/12/27 02:03:27;;;;;;;45.40;20.20;;;;;;;2.50;100.00;100120.88;5020086;28;20063;-45
2021/12/27 02:05:53;;;;;;;43.15;20.38;;;;;;;2.51;100.00;100122.53;5018149;28;20030;-46
2021/12/27 02:08:19;;;;;;;45.63;21.08;;;;;;;2.51;100.00;100117.25;5019527;28;20421;-43
2021/12/27 02:10:44;;;;;;;44.95;21.25;;;;;;;2.49;100.00;100120.03;5020394;28;20079;-46
2021/12/27 02:13:10;;;;;;;43.33;20.00;;;;;;;2.48;100.00;100104.34;5019587;28;20021;-46
2021/12/27 02:15:36;;;;;;;46.05;20.35;;;;;;;2.53;100.00;100110.06;5020087;28;20456;-44
2021/12/27 02:18:01;;;;;;;46.20;20.70;;;;;;;2.53;100.00;100110.91;5020256;28;20112;-47
2021/12/27 02:20:29;;;;;;;44.67;20.08;;;;;;;2.56;100.00;100110.66;5019762;28;20428;-50
2021/12/27 02:23:00;;;;;;;45.03;20.42;;;;;;;2.55;100.00;100114.25;5018844;28;20121;-46
2021/12/27 02:25:26;;;;;;;43.17;20.05;;;;;;;2.58;100.00;100105.25;5020463;28;20017;-44
2021/12/27 02:27:52;;;;;;;43.95;20.25;;;;;;;2.58;100.00;100107.88;5019262;28;20025;-43
2021/12/27 02:30:19;;;;;;;46.78;20.83;;;;;;;2.60;100.00;100108.59;5020034;28;20486;-45
2021/12/27 02:32:55;;;;;;;47.88;20.98;;;;;;;2.60;100.00;100101.53;5017536;28;20072;-43
2021/12/27 02:35:33;;;;;;;48.42;20.50;;;;;;;2.61;100.00;100100.56;5019136;28;20029;-45
2021/12/27 02:38:00;;;;;;;46.30;19.60;;;;;;;2.64;100.00;100098.63;5019055;28;20052;-45
2021/12/27 02:40:30;;;;;;;46.97;20.80;;;;;;;2.65;100.00;100106.41;5020533;28;20398;-47
2021/12/27 02:43:06;;;;;;;46.13;20.10;;;;;;;2.66;100.00;100105.44;5018374;28;20037;-49
2021/12/27 02:45:34;;;;;;;52.58;22.52;;;;;;;2.68;100.00;100103.53;5019714;28;20041;-44
2021/12/27 02:48:00;;;;;;;46.90;21.35;;;;;;;2.69;100.00;100110.47;5019708;28;20064;-44
2021/12/27 02:50:27;;;;;;;46.60;20.13;;;;;;;2.66;100.00;100096.69;5019100;28;20068;-46
2021/12/27 02:52:53;;;;;;;47.47;20.80;;;;;;;2.70;100.00;100092.84;5019484;28;21194;-46
2021/12/27 02:55:19;;;;;;;48.35;19.88;;;;;;;2.72;100.00;100101.47;5017389;28;20450;-47
2021/12/27 02:57:46;;;;;;;45.42;20.15;;;;;;;2.72;100.00;100091.75;5018598;28;20091;-44
2021/12/27 03:00:21;;;;;;;46.95;20.17;;;;;;;2.73;100.00;100084.66;5027987;28;20029;-45
2021/12/27 03:02:48;;;;;;;46.45;20.67;;;;;;;2.72;100.00;100075.94;5038435;28;20504;-43
2021/12/27 03:05:18;;;;;;;45.90;20.42;;;;;;;2.74;100.00;100089.00;5037793;28;20059;-44
2021/12/27 03:07:45;;;;;;;47.63;20.60;;;;;;;2.75;100.00;100088.00;5038030;28;20035;-44
2021/12/27 03:10:13;;;;;;;46.20;20.70;;;;;;;2.73;100.00;100087.31;5039165;28;20020;-43
2021/12/27 03:12:38;;;;;;;43.45;20.42;;;;;;;2.74;100.00;100083.72;5038355;28;20583;-48
2021/12/27 03:15:08;;;;;;;51.80;21.88;;;;;;;2.76;100.00;100087.06;5039648;28;20056;-46
2021/12/27 03:17:35;;;;;;;46.30;20.55;;;;;;;2.76;100.00;100085.25;5037382;28;20637;-45
2021/12/27 03:20:01;;;;;;;47.88;21.05;;;;;;;2.75;100.00;100075.69;5038268;28;20069;-43
2021/12/27 03:22:26;;;;;;;52.40;20.63;;;;;;;2.78;100.00;100075.44;5038522;28;20020;-43
2021/12/27 03:24:52;;;;;;;51.42;22.50;;;;;;;2.81;100.00;100079.59;5038710;28;20112;-45
2021/12/27 03:27:18;;;;;;;48.53;20.70;;;;;;;2.80;100.00;100075.28;5038097;28;20052;-46
2021/12/27 03:29:43;;;;;;;49.72;21.88;;;;;;;2.82;100.00;100075.16;5038459;28;20466;-47
2021/12/27 03:32:08;;;;;;;52.58;21.77;;;;;;;2.83;100.00;100075.00;5037844;28;20055;-47
2021/12/27 03:34:41;;;;;;;49.97;22.35;;;;;;;2.84;100.00;100081.97;5037248;28;20281;-45
2021/12/27 03:37:06;;;;;;;51.95;21.67;;;;;;;2.84;100.00;100076.69;5037072;28;20623;-44
2021/12/27 03:39:32;;;;;;;47.35;20.63;;;;;;;2.86;100.00;100076.56;5038873;28;20515;-44
2021/12/27 03:41:57;;;;;;;56.97;21.88;;;;;;;2.83;100.00;100066.28;5038758;28;20028;-45
2021/12/27 03:44:22;;;;;;;48.15;20.60;;;;;;;2.87;100.00;100067.69;5037956;28;20092;-46
2021/12/27 03:46:48;;;;;;;52.72;21.70;;;;;;;2.89;100.00;100068.41;5038583;28;20021;-48
2021/12/27 03:49:13;;;;;;;50.65;21.58;;;;;;;2.91;100.00;100069.09;5037546;28;20031;-45
2021/12/27 03:51:43;;;;;;;48.92;21.02;;;;;;;2.92;100.00;100070.75;5037681;28;20029;-44
2021/12/27 03:54:08;;;;;;;51.63;20.88;;;;;;;2.94;100.00;100064.41;5038749;28;20025;-45
2021/12/27 03:56:33;;;;;;;47.00;21.25;;;;;;;2.94;100.00;100063.56;5037361;28;20162;-45
2021/12/27 03:59:19;;;;;;;51.95;21.23;;;;;;;2.95;100.00;100046.75;5036499;28;20529;-44
2021/12/27 04:01:44;;;;;;;48.80;20.98;;;;;;;2.96;100.00;100056.34;5017839;28;20025;-46
2021/12/27 04:04:09;;;;;;;53.45;21.85;;;;;;;2.96;100.00;100051.91;5017659;28;20047;-47
2021/12/27 04:06:34;;;;;;;49.42;21.88;;;;;;;2.98;100.00;100049.13;5017367;28;20029;-43
2021/12/27 04:09:00;;;;;;;48.67;21.30;;;;;;;2.94;100.00;100035.38;5017726;28;20025;-43
2021/12/27 04:11:25;;;;;;;48.88;20.85;;;;;;;2.99;100.00;100040.28;5018014;28;20025;-44
2021/12/27 04:13:50;;;;;;;51.13;21.33;;;;;;;2.99;100.00;100040.28;5018107;28;20120;-46
2021/12/27 04:16:16;;;;;;;50.35;21.55;;;;;;;3.02;100.00;100041.78;5018344;28;20183;-45
2021/12/27 04:18:41;;;;;;;50.65;21.15;;;;;;;3.02;100.00;100033.88;5017308;28;20017;-44
2021/12/27 04:21:07;;;;;;;52.17;22.00;;;;;;;3.02;100.00;100032.09;5016693;28;20103;-43
2021/12/27 04:23:32;;;;;;;50.22;21.70;;;;;;;3.02;100.00;100025.97;5016885;28;20040;-44
2021/12/27 04:25:57;;;;;;;52.85;22.23;;;;;;;3.01;100.00;100019.03;5017636;28;20072;-46
2021/12/27 04:28:24;;;;;;;50.80;21.52;;;;;;;3.01;100.00;100022.50;5018147;28;20033;-45
2021/12/27 04:30:50;;;;;;;51.78;20.85;;;;;;;3.01;100.00;100027.78;5017746;28;20559;-44
2021/12/27 04:33:15;;;;;;;49.83;21.40;;;;;;;3.02;100.00;100021.56;5017389;28;20329;-44
2021/12/27 04:35:40;;;;;;;48.47;20.98;;;;;;;3.02;100.00;100016.28;5017298;28;20473;-43
2021/12/27 04:38:06;;;;;;;56.15;22.20;;;;;;;3.06;100.00;100022.13;5015258;28;20051;-44
2021/12/27 04:40:35;;;;;;;48.95;21.92;;;;;;;3.06;100.00;100012.38;5018214;28;20074;-45
2021/12/27 04:43:21;;;;;;;48.22;21.23;;;;;;;3.05;100.00;100007.25;5017076;28;20081;-46
2021/12/27 04:45:49;;;;;;;53.53;21.85;;;;;;;3.08;100.00;100006.97;5016935;28;20025;-45
2021/12/27 04:48:15;;;;;;;52.63;21.52;;;;;;;3.10;100.00;100007.69;5017015;28;20452;-44
2021/12/27 04:50:41;;;;;;;55.47;22.00;;;;;;;3.09;100.00;100006.84;5034815;28;20162;-47
2021/12/27 04:53:06;;;;;;;58.72;22.92;;;;;;;3.11;100.00;100004.09;5037197;28;20108;-45
2021/12/27 04:55:34;;;;;;;55.67;21.33;;;;;;;3.13;100.00;100007.41;5036981;28;20033;-45
2021/12/27 04:58:00;;;;;;;50.67;22.20;;;;;;;3.13;100.00;100004.78;5037623;28;20033;-46
2021/12/27 05:00:26;;;;;;;59.97;22.45;;;;;;;3.15;100.00;100011.56;5026671;28;20028;-45
2021/12/27 05:02:52;;;;;;;60.70;22.88;;;;;;;3.16;100.00;100004.53;5015244;28;20179;-46
2021/12/27 05:05:17;;;;;;;54.83;22.00;;;;;;;3.16;100.00;100005.34;5017205;28;20039;-44
2021/12/27 05:07:44;;;;;;;50.80;21.83;;;;;;;3.16;100.00;100005.34;5016728;28;20473;-48
2021/12/27 05:10:10;;;;;;;52.92;22.88;;;;;;;3.17;100.00;100003.53;5017641;28;20426;-45
2021/12/27 05:12:36;;;;;;;52.05;21.80;;;;;;;3.17;100.00;100007.03;5015722;28;20480;-45
2021/12/27 05:15:03;;;;;;;52.63;22.02;;;;;;;3.19;100.00;100001.59;5017270;28;20104;-46
2021/12/27 05:17:29;;;;;;;56.83;22.73;;;;;;;3.21;100.00;100006.72;5017443;28;20370;-44
2021/12/27 05:19:54;;;;;;;57.47;22.42;;;;;;;3.20;100.00;99999.81;5017199;28;20028;-46
2021/12/27 05:22:19;;;;;;;53.05;22.42;;;;;;;3.20;100.00;100002.44;5017008;28;20013;-48
2021/12/27 05:24:45;;;;;;;55.47;23.00;;;;;;;3.19;100.00;99993.66;5015523;28;20080;-44
2021/12/27 05:27:10;;;;;;;56.35;21.88;;;;;;;3.18;100.00;99995.47;5016609;28;20018;-45
2021/12/27 05:29:37;;;;;;;49.95;22.35;;;;;;;3.17;100.00;99991.19;5016801;28;20025;-43
2021/12/27 05:32:03;;;;;;;56.95;22.02;;;;;;;3.21;100.00;99978.56;5019949;28;20117;-46
2021/12/27 05:34:28;;;;;;;55.22;22.80;;;;;;;3.23;100.00;99988.97;5019766;28;20124;-44
2021/12/27 05:36:54;;;;;;;57.50;23.52;;;;;;;3.24;100.00;99991.50;5021110;28;20128;-46
2021/12/27 05:39:21;;;;;;;55.70;23.38;;;;;;;3.27;100.00;99982.44;5034280;28;20116;-45
2021/12/27 05:41:47;;;;;;;52.78;22.08;;;;;;;3.28;100.00;99979.69;5039806;28;20185;-45
2021/12/27 05:44:14;;;;;;;56.30;22.88;;;;;;;3.31;100.00;99984.69;5040944;28;20174;-46
2021/12/27 05:46:39;;;;;;;58.03;23.42;;;;;;;3.28;100.00;99979.69;5040468;28;20025;-44
2021/12/27 05:49:05;;;;;;;55.10;23.60;;;;;;;3.35;100.00;99988.72;5040027;28;20417;-47
2021/12/27 05:51:30;;;;;;;59.15;23.35;;;;;;;3.38;100.00;99986.78;5040097;28;20033;-44
2021/12/27 05:53:56;;;;;;;54.25;23.50;;;;;;;3.40;100.00;99990.13;5038807;28;20104;-45
2021/12/27 05:56:21;;;;;;;55.22;23.02;;;;;;;3.42;100.00;99985.56;5039575;28;20174;-43
2021/12/27 05:58:46;;;;;;;59.45;24.38;;;;;;;3.42;100.00;99985.56;5040553;28;20528;-46
2021/12/27 06:01:11;;;;;;;57.47;23.55;;;;;;;3.42;100.00;99983.72;5040811;28;20488;-44
2021/12/27 06:03:37;;;;;;;55.63;23.08;;;;;;;3.45;100.00;99996.66;5038922;28;20028;-47
2021/12/27 06:06:02;;;;;;;58.00;24.27;;;;;;;3.47;100.00;99994.72;5040686;28;20023;-45
2021/12/27 06:08:28;;;;;;;66.57;24.45;;;;;;;3.47;100.00;99993.91;5040304;28;20035;-43
2021/12/27 06:10:53;;;;;;;56.13;23.15;;;;;;;3.49;100.00;99994.59;5040161;28;20036;-45
2021/12/27 06:13:18;;;;;;;54.72;23.35;;;;;;;3.48;100.00;99984.97;5040264;28;20048;-43
2021/12/27 06:15:43;;;;;;;57.78;24.42;;;;;;;3.51;100.00;99996.13;5040192;28;20501;-44
2021/12/27 06:18:09;;;;;;;61.10;24.33;;;;;;;3.54;100.00;99993.19;5040104;28;20106;-45
2021/12/27 06:20:34;;;;;;;58.58;23.80;;;;;;;3.56;100.00;99990.41;5038687;28;20021;-45
2021/12/27 06:22:59;;;;;;;59.25;23.52;;;;;;;3.57;100.00;99986.81;5040036;28;20150;-44
2021/12/27 06:25:25;;;;;;;54.58;22.92;;;;;;;3.60;100.00;99993.63;5039606;28;20332;-46
2021/12/27 06:27:51;;;;;;;61.40;24.20;;;;;;;3.61;100.00;99984.75;5039215;28;20191;-44
2021/12/27 06:30:17;;;;;;;55.42;23.30;;;;;;;3.63;100.00;99993.34;5039982;28;20032;-44
2021/12/27 06:32:43;;;;;;;60.13;23.40;;;;;;;3.64;100.00;99984.47;5039309;28;20126;-47
2021/12/27 06:35:13;;;;;;;60.25;24.20;;;;;;;3.67;100.00;99986.84;5039340;28;20503;-43
2021/12/27 06:37:40;;;;;;;61.58;23.52;;;;;;;3.65;100.00;99978.19;5037961;28;20075;-45
2021/12/27 06:40:06;;;;;;;60.50;23.88;;;;;;;3.66;100.00;99980.69;5019068;28;20229;-45
2021/12/27 06:42:31;;;;;;;56.22;22.92;;;;;;;3.68;100.00;99986.72;5018163;28;20079;-44
2021/12/27 06:44:56;;;;;;;65.78;24.63;;;;;;;3.67;100.00;99974.47;5020272;28;20044;-43
2021/12/27 06:47:22;;;;;;;60.72;24.52;;;;;;;3.68;100.00;99972.66;5019870;28;20092;-44
2021/12/27 06:49:48;;;;;;;61.83;24.33;;;;;;;3.71;100.00;99975.84;5018677;28;20025;-46
2021/12/27 06:52:14;;;;;;;61.83;24.13;;;;;;;3.71;100.00;99973.19;5018024;28;20035;-44
2021/12/27 06:54:40;;;;;;;54.83;24.08;;;;;;;3.73;100.00;99968.63;5019406;28;20441;-44
2021/12/27 06:57:06;;;;;;;57.25;24.40;;;;;;;3.72;100.00;99964.31;5019515;28;20041;-44
2021/12/27 06:59:31;;;;;;;61.55;24.35;;;;;;;3.75;100.00;99963.19;5019286;28;20385;-48
2021/12/27 07:01:56;;;;;;;57.85;24.33;;;;;;;3.74;100.00;99961.53;5019698;28;20101;-44
2021/12/27 07:04:22;;;;;;;55.97;24.55;;;;;;;3.76;100.00;99964.03;5018490;28;20373;-43
2021/12/27 07:06:48;;;;;;;55.20;23.23;;;;;;;3.76;100.00;99964.88;5018129;28;20112;-44
2021/12/27 07:09:13;;;;;;;59.35;23.95;;;;;;;3.79;100.00;99959.31;5019331;28;20060;-45
2021/12/27 07:11:41;;;;;;;65.43;23.58;;;;;;;3.82;100.00;99960.81;5018925;28;20022;-44
2021/12/27 07:14:06;;;;;;;61.63;23.60;;;;;;;3.82;100.00;99956.41;5019942;28;20083;-44
2021/12/27 07:16:31;;;;;;;65.10;23.92;;;;;;;3.84;100.00;99953.63;5018957;28;20386;-48
2021/12/27 07:18:57;;;;;;;62.33;23.98;;;;;;;3.83;100.00;99946.66;5018406;28;20474;-45
2021/12/27 07:21:22;;;;;;;59.33;23.30;;;;;;;3.83;100.00;99954.59;5033248;28;20045;-47
2021/12/27 07:23:48;;;;;;;61.30;23.88;;;;;;;3.83;100.00;99947.50;5019256;28;20037;-45
2021/12/27 07:26:13;;;;;;;67.97;25.13;;;;;;;3.86;100.00;99949.03;5018458;28;20120;-45
2021/12/27 07:28:39;;;;;;;68.75;25.05;;;;;;;3.83;100.00;99941.38;5018926;28;20064;-45
2021/12/27 07:31:04;;;;;;;65.78;24.35;;;;;;;3.84;100.00;99946.53;5019505;28;20033;-48
2021/12/27 07:33:29;;;;;;;56.28;23.70;;;;;;;3.84;100.00;99935.97;5017462;28;20021;-45
2021/12/27 07:35:55;;;;;;;64.88;24.35;;;;;;;3.84;100.00;99943.88;5018035;28;20021;-48
2021/12/27 07:38:20;;;;;;;60.63;23.05;;;;;;;3.83;100.00;99938.75;5023815;28;20013;-47
2021/12/27 07:40:45;;;;;;;62.15;24.02;;;;;;;3.87;100.00;99940.13;5038237;28;20017;-46
2021/12/27 07:43:11;;;;;;;63.05;23.35;;;;;;;3.87;100.00;99937.47;5038866;28;20051;-47
2021/12/27 07:45:36;;;;;;;68.75;25.00;;;;;;;3.89;100.00;99943.47;5038205;28;20021;-44
2021/12/27 07:48:02;;;;;;;68.18;24.60;;;;;;;3.90;100.00;99942.47;5038392;28;20232;-44
2021/12/27 07:50:27;;;;;;;69.07;23.58;;;;;;;3.93;100.00;99950.13;5036845;28;20036;-44
2021/12/27 07:52:53;;;;;;;71.68;24.10;;;;;;;3.96;100.00;99944.56;5038138;28;20405;-45
2021/12/27 07:55:19;;;;;;;75.35;26.58;;;;;;;3.96;100.00;99938.47;5038009;28;20555;-46
2021/12/27 07:57:44;;;;;;;69.05;24.60;;;;;;;4.00;100.00;99945.94;5038051;28;20532;-43
2021/12/27 08:00:11;;;;;;;75.90;25.83;;;;;;;4.02;100.00;99944.03;5038988;28;20029;-47
2021/12/27 08:02:37;;;;;;;67.55;23.20;;;;;;;4.04;100.00;99946.50;5036892;28;20028;-44
2021/12/27 08:05:03;;;;;;;77.38;25.13;;;;;;;4.07;100.00;99952.34;5035710;28;20060;-48
2021/12/27 08:07:28;;;;;;;73.53;25.65;;;;;;;4.11;100.00;99966.13;5037619;28;20110;-44
2021/12/27 08:09:54;;;;;;;78.43;27.92;;;;;;;4.14;100.00;99963.19;5036947;28;20319;-45
2021/12/27 08:12:20;;;;;;;69.78;24.60;;;;;;;4.14;100.00;99951.78;5036243;28;20025;-47
2021/12/27 08:14:45;;;;;;;67.63;25.58;;;;;;;4.12;100.00;99946.63;5037913;28;20088;-45
2021/12/27 08:17:10;;;;;;;71.93;25.02;;;;;;;4.14;100.00;99955.28;5038881;28;20104;-44
2021/12/27 08:19:35;;;;;;;71.70;25.65;;;;;;;4.16;100.00;99957.75;5035581;28;20037;-45
2021/12/27 08:22:01;;;;;;;67.95;24.98;;;;;;;4.17;100.00;99962.06;5038106;28;20047;-47
2021/12/27 08:24:26;;;;;;;63.95;25.90;;;;;;;4.19;100.00;99962.75;5038502;28;20082;-45
2021/12/27 08:26:52;;;;;;;67.65;25.13;;;;;;;4.21;100.00;99974.88;5037583;28;20025;-48
2021/12/27 08:29:17;;;;;;;74.38;26.60;;;;;;;4.25;100.00;99962.19;5038066;28;20048;-44
2021/12/27 08:31:42;;;;;;;70.45;25.73;;;;;;;4.26;100.00;99963.84;5037687;28;20071;-45
2021/12/27 08:34:08;;;;;;;64.43;25.23;;;;;;;4.26;100.00;99958.56;5036492;28;20087;-45
2021/12/27 08:36:33;;;;;;;68.85;25.55;;;;;;;4.30;100.00;99965.25;5036638;28;20284;-43
2021/12/27 08:38:58;;;;;;;72.05;26.10;;;;;;;4.33;100.00;99958.81;5038279;28;20427;-46
2021/12/27 08:41:27;;;;;;;69.72;24.15;;;;;;;4.34;100.00;99952.56;5037670;28;20048;-45
2021/12/27 08:43:57;;;;;;;65.32;24.80;;;;;;;4.35;100.00;99955.06;5038294;28;20040;-45
2021/12/27 08:46:23;;;;;;;74.35;26.08;;;;;;;4.38;100.00;99951.28;5037699;28;20032;-46
2021/12/27 08:48:48;;;;;;;67.57;25.83;;;;;;;4.39;100.00;99943.22;5035012;28;20496;-44
2021/12/27 08:51:14;;;;;;;61.78;24.70;;;;;;;4.40;100.00;99944.09;5036886;28;20024;-43
2021/12/27 08:53:40;;;;;;;73.80;25.65;;;;;;;4.44;100.00;99940.97;5037003;28;20036;-45
2021/12/27 08:56:05;;;;;;;71.45;26.73;;;;;;;4.45;100.00;99940.03;5036341;28;20020;-45
2021/12/27 08:58:30;;;;;;;66.15;24.80;;;;;;;4.46;100.00;99935.56;5036132;28;20024;-43
2021/12/27 09:00:56;;;;;;;58.20;24.40;;;;;;;4.44;100.00;99926.94;5037560;28;20052;-44
2021/12/27 09:03:21;;;;;;;63.97;24.85;;;;;;;4.39;100.00;99919.44;5034942;28;20021;-48
2021/12/27 09:05:46;;;;;;;64.45;24.27;;;;;;;4.32;100.00;99910.41;5035916;28;20224;-45
2021/12/27 09:08:12;;;;;;;56.58;22.30;;;;;;;4.26;100.00;99906.56;5036972;28;20434;-46
2021/12/27 09:10:37;;;;;;;52.80;21.00;;;;;;;4.21;100.00;99902.66;5037450;28;20568;-43
2021/12/27 09:13:02;;;;;;;59.83;22.23;;;;;;;4.16;100.00;99897.81;5037289;28;20028;-44
2021/12/27 09:15:29;;;;;;;58.55;23.67;;;;;;;4.17;100.00;99896.00;5037451;28;20096;-46
2021/12/27 09:17:55;;;;;;;64.47;24.05;;;;;;;4.18;100.00;99895.84;5036278;28;20040;-44
2021/12/27 09:20:21;;;;;;;64.68;24.65;;;;;;;4.17;100.00;99903.94;5036919;28;20021;-47
2021/12/27 09:22:47;;;;;;;61.83;26.05;;;;;;;4.15;100.00;99912.00;5036524;28;20434;-48
2021/12/27 09:25:12;;;;;;;61.55;25.35;;;;;;;4.15;100.00;99911.16;5037387;28;20117;-43
2021/12/27 09:27:37;;;;;;;70.70;26.63;;;;;;;4.16;100.00;99924.25;5036358;28;20041;-46
2021/12/27 09:30:05;;;;;;;69.30;26.77;;;;;;;4.15;100.00;99927.03;5037859;28;20452;-44
2021/12/27 09:32:30;;;;;;;63.97;25.17;;;;;;;4.14;100.00;99925.34;5036174;28;20025;-45
2021/12/27 09:34:55;;;;;;;63.13;24.52;;;;;;;4.16;100.00;99926.03;5036378;28;20264;-44
2021/12/27 09:37:21;;;;;;;68.43;25.80;;;;;;;4.22;100.00;99936.88;5036090;28;20060;-45
2021/12/27 09:39:53;;;;;;;61.95;24.98;;;;;;;4.35;100.00;99938.41;5019700;28;20545;-46
2021/12/27 09:42:20;;;;;;;69.38;25.20;;;;;;;4.48;100.00;99928.31;5016944;28;20422;-48
2021/12/27 09:44:45;;;;;;;67.82;27.13;;;;;;;4.59;100.00;99924.69;5018165;28;20080;-48
2021/12/27 09:47:10;;;;;;;68.65;27.85;;;;;;;4.67;100.00;99922.13;5036172;28;20032;-48
2021/12/27 09:49:35;;;;;;;65.97;25.92;;;;;;;4.78;100.00;99921.09;5035083;28;20409;-46
2021/12/27 09:52:01;;;;;;;61.22;23.50;;;;;;;4.87;100.00;99906.97;5035189;28;20040;-48
2021/12/27 09:54:28;;;;;;;57.28;22.85;;;;;;;4.95;100.00;99911.56;5034784;28;20104;-46
2021/12/27 09:56:54;;;;;;;55.85;22.08;;;;;;;5.03;100.00;99909.00;5036554;28;20025;-47
2021/12/27 09:59:20;;;;;;;53.20;22.35;;;;;;;5.10;100.00;99902.13;5036461;28;20056;-49
2021/12/27 10:01:46;;;;;;;46.38;21.08;;;;;;;5.13;100.00;99901.84;5034845;28;20025;-50
2021/12/27 10:04:11;;;;;;;50.47;20.98;;;;;;;5.16;100.00;99896.25;5034750;28;20100;-49
2021/12/27 10:06:36;;;;;;;46.38;21.20;;;;;;;5.12;100.00;99894.88;5034742;28;20235;-47
2021/12/27 10:09:07;;;;;;;47.08;20.25;;;;;;;5.04;100.00;99900.91;5035678;28;20070;-47
2021/12/27 10:11:36;;;;;;;47.07;20.70;;;;;;;4.98;100.00;99884.81;5035166;28;20497;-46
2021/12/27 10:14:12;;;;;;;50.70;20.45;;;;;;;4.98;100.00;99877.69;5036380;28;20272;-45
2021/12/27 10:16:42;;;;;;;50.80;21.00;;;;;;;4.97;100.00;99870.75;5032859;28;20017;-50
2021/12/27 10:19:10;;;;;;;50.95;22.08;;;;;;;4.95;100.00;99861.28;5037320;28;20017;-50
2021/12/27 10:21:41;;;;;;;57.45;25.27;;;;;;;4.91;100.00;99847.53;5035849;28;20450;-48
2021/12/27 10:24:13;;;;;;;55.67;25.50;;;;;;;4.87;100.00;99848.78;5039718;28;20563;-46
2021/12/27 10:26:39;;;;;;;57.38;25.67;;;;;;;4.82;100.00;99849.25;5035977;28;20028;-50
2021/12/27 10:29:10;;;;;;;57.42;26.80;;;;;;;4.79;100.00;99849.53;5039183;28;20626;-50
2021/12/27 10:32:14;;;;;;;59.97;26.77;;;;;;;4.75;100.00;99858.75;5037649;28;20084;-47
2021/12/27 10:34:46;;;;;;;58.92;26.55;;;;;;;4.73;100.00;99866.00;5030331;28;20041;-45
2021/12/27 10:37:33;;;;;;;63.85;26.48;;;;;;;4.74;100.00;99874.78;5037899;28;20037;-49
2021/12/27 10:40:07;;;;;;;65.55;28.42;;;;;;;4.79;100.00;99867.22;5038500;28;20028;-49
2021/12/27 10:42:39;;;;;;;67.53;27.67;;;;;;;4.86;100.00;99863.00;5035580;28;20520;-48
2021/12/27 10:45:11;;;;;;;68.68;28.20;;;;;;;4.97;100.00;99862.81;5038824;28;20469;-45
2021/12/27 10:47:41;;;;;;;68.28;28.35;;;;;;;5.11;100.00;99865.91;5035731;28;20116;-48
2021/12/27 10:50:27;;;;;;;68.45;29.58;;;;;;;5.21;100.00;99862.22;5038049;28;20039;-44
2021/12/27 10:53:08;;;;;;;62.92;28.95;;;;;;;5.35;100.00;99852.91;5036096;28;20504;-48
2021/12/27 10:55:38;;;;;;;56.53;27.00;;;;;;;5.53;100.00;99860.00;5036390;28;20097;-48
2021/12/27 10:58:11;;;;;;;57.60;25.00;;;;;;;5.65;100.00;99861.47;5036943;28;20493;-47
2021/12/27 11:00:38;;;;;;;54.17;25.33;;;;;;;5.75;100.00;99858.69;5037505;28;20412;-47
2021/12/27 11:03:03;;;;;;;53.22;24.23;;;;;;;5.82;100.00;99857.09;5036876;28;20512;-46
2021/12/27 11:05:31;;;;;;;51.05;22.17;;;;;;;5.90;100.00;99857.13;5036448;28;20063;-49
2021/12/27 11:08:00;;;;;;;49.30;22.73;;;;;;;6.02;100.00;99846.31;5036539;28;20454;-45
2021/12/27 11:10:27;;;;;;;45.78;21.27;;;;;;;6.12;100.00;99841.75;5038601;28;20070;-45
2021/12/27 11:12:53;;;;;;;45.03;21.38;;;;;;;6.19;100.00;99847.25;5036993;28;20033;-47
2021/12/27 11:15:19;;;;;;;44.10;21.38;;;;;;;6.26;100.00;99840.31;5037796;28;20240;-48
2021/12/27 11:17:45;;;;;;;40.20;20.23;;;;;;;6.29;100.00;99848.78;5036273;28;20047;-50